createdAt,value
2018-09-03T00:02:23.004Z,4.07
2018-09-03T00:04:50.968Z,5.70
2018-09-03T00:07:18.926Z,4.30
2018-09-03T00:09:46.840Z,4.07
2018-09-03T00:12:14.815Z,4.33
2018-09-03T00:14:42.777Z,4.30
2018-09-03T00:17:10.720Z,4.80
2018-09-03T00:19:38.684Z,5.33
2018-09-03T00:22:06.863Z,3.77
2018-09-03T00:24:34.832Z,3.97
2018-09-03T00:27:02.798Z,3.57
2018-09-03T00:29:30.825Z,4.03
2018-09-03T00:32:04.084Z,5.03
2018-09-03T00:34:37.373Z,5.40
2018-09-03T00:37:10.932Z,4.87
2018-09-03T00:39:44.309Z,6.17
2018-09-03T00:42:17.724Z,4.47
2018-09-03T00:44:51.325Z,3.97
2018-09-03T00:47:19.274Z,3.83
2018-09-03T00:49:47.245Z,4.47
2018-09-03T00:52:15.233Z,4.77
2018-09-03T00:54:43.181Z,5.40
2018-09-03T00:57:11.107Z,6.67
2018-09-03T00:59:39.218Z,6.13
2018-09-03T01:02:07.185Z,4.90
2018-09-03T01:04:35.112Z,7.43
2018-09-03T01:07:03.100Z,5.57
2018-09-03T01:09:31.046Z,4.70
2018-09-03T01:11:59.061Z,4.80
2018-09-03T01:14:27.048Z,6.13
2018-09-03T01:16:55.012Z,5.73
2018-09-03T01:19:22.968Z,7.70
2018-09-03T01:21:50.939Z,5.80
2018-09-03T01:24:18.915Z,8.37
2018-09-03T01:26:46.881Z,5.17
2018-09-03T01:29:14.869Z,5.67
2018-09-03T01:31:42.872Z,5.37
2018-09-03T01:34:10.844Z,5.43
2018-09-03T01:36:38.912Z,5.07
2018-09-03T01:39:07.536Z,5.33
2018-09-03T01:41:35.545Z,7.37
2018-09-03T01:44:03.500Z,5.77
2018-09-03T01:46:31.488Z,5.93
2018-09-03T01:48:59.459Z,5.80
2018-09-03T01:51:27.484Z,4.87
2018-09-03T01:53:55.477Z,5.53
2018-09-03T01:56:23.564Z,6.83
2018-09-03T01:58:51.609Z,9.77
2018-09-03T02:01:19.681Z,6.13
2018-09-03T02:03:47.684Z,6.30
2018-09-03T02:06:15.664Z,4.80
2018-09-03T02:08:43.844Z,5.97
2018-09-03T02:11:11.755Z,7.80
2018-09-03T02:13:39.764Z,5.93
2018-09-03T02:16:07.703Z,7.27
2018-09-03T02:18:35.762Z,6.60
2018-09-03T02:21:03.796Z,8.53
2018-09-03T02:23:31.764Z,5.33
2018-09-03T02:25:59.745Z,5.70
2018-09-03T02:28:27.701Z,5.23
2018-09-03T02:30:55.688Z,5.63
2018-09-03T02:33:23.649Z,6.03
2018-09-03T02:35:51.648Z,5.33
2018-09-03T02:38:19.591Z,4.50
2018-09-03T02:40:47.611Z,5.93
2018-09-03T02:43:15.590Z,6.90
2018-09-03T02:45:43.708Z,5.57
2018-09-03T02:48:11.737Z,7.20
2018-09-03T02:50:39.760Z,6.07
2018-09-03T02:53:07.996Z,4.97
2018-09-03T02:55:36.045Z,4.33
2018-09-03T02:58:04.112Z,5.03
2018-09-03T03:00:32.055Z,7.00
2018-09-03T03:02:59.996Z,8.17
2018-09-03T03:05:28.860Z,8.00
2018-09-03T03:07:57.180Z,5.97
2018-09-03T03:10:25.553Z,6.57
2018-09-03T03:12:53.552Z,5.90
2018-09-03T03:15:21.484Z,6.77
2018-09-03T03:17:49.436Z,9.07
2018-09-03T03:20:17.383Z,5.17
2018-09-03T03:22:45.353Z,5.17
2018-09-03T03:25:13.496Z,5.90
2018-09-03T03:27:41.467Z,4.93
2018-09-03T03:30:10.032Z,5.87
2018-09-03T03:32:38.269Z,5.70
2018-09-03T03:35:06.548Z,5.47
2018-09-03T03:37:34.503Z,5.17
2018-09-03T03:40:02.420Z,6.57
2018-09-03T03:42:30.380Z,7.57
2018-09-03T03:44:58.298Z,6.60
2018-09-03T03:47:26.615Z,6.77
2018-09-03T03:49:54.591Z,6.70
2018-09-03T03:52:22.556Z,6.33
2018-09-03T03:54:50.501Z,7.07
2018-09-03T03:57:18.484Z,6.97
2018-09-03T03:59:46.425Z,5.23
2018-09-03T04:02:14.394Z,9.30
2018-09-03T04:04:42.532Z,6.00
2018-09-03T04:07:10.480Z,7.40
2018-09-03T04:09:38.432Z,7.10
2018-09-03T04:12:06.433Z,5.37
2018-09-03T04:14:34.395Z,6.50
2018-09-03T04:17:02.360Z,7.57
2018-09-03T04:19:30.326Z,7.90
2018-09-03T04:21:58.276Z,7.30
2018-09-03T04:24:26.212Z,6.87
2018-09-03T04:26:54.171Z,6.97
2018-09-03T04:29:22.674Z,7.50
2018-09-03T04:31:50.655Z,8.13
2018-09-03T04:34:18.572Z,7.30
2018-09-03T04:36:46.520Z,9.30
2018-09-03T04:39:14.508Z,6.80
2018-09-03T04:41:42.440Z,6.97
2018-09-03T04:44:10.355Z,6.40
2018-09-03T04:46:38.347Z,12.27
2018-09-03T04:49:06.306Z,9.03
2018-09-03T04:51:34.293Z,8.90
2018-09-03T04:54:02.241Z,7.83
2018-09-03T04:56:30.197Z,7.57
2018-09-03T04:58:58.148Z,10.37
2018-09-03T05:01:26.075Z,12.00
2018-09-03T05:03:54.126Z,8.07
2018-09-03T05:06:22.063Z,7.33
2018-09-03T05:08:50.128Z,10.13
2018-09-03T05:11:18.097Z,7.73
2018-09-03T05:13:46.053Z,7.53
2018-09-03T05:16:14.042Z,7.73
2018-09-03T05:18:42.007Z,8.70
2018-09-03T05:21:09.945Z,7.67
2018-09-03T05:23:37.893Z,8.13
2018-09-03T05:26:05.832Z,9.43
2018-09-03T05:28:33.804Z,7.07
2018-09-03T05:31:01.756Z,8.93
2018-09-03T05:33:29.740Z,9.47
2018-09-03T05:35:57.704Z,8.33
2018-09-03T05:38:25.626Z,8.60
2018-09-03T05:40:53.559Z,7.53
2018-09-03T05:43:21.611Z,6.13
2018-09-03T05:45:49.425Z,10.73
2018-09-03T05:48:17.508Z,7.27
2018-09-03T05:50:45.551Z,8.83
2018-09-03T05:53:13.448Z,11.23
2018-09-03T05:55:41.544Z,7.17
2018-09-03T05:58:09.845Z,6.83
2018-09-03T06:00:37.868Z,7.07
2018-09-03T06:03:05.956Z,6.10
2018-09-03T06:05:34.080Z,8.37
2018-09-03T06:08:03.593Z,7.87
2018-09-03T06:10:31.715Z,6.93
2018-09-03T06:12:59.730Z,8.90
2018-09-03T06:15:27.806Z,10.50
2018-09-03T06:17:55.917Z,7.53
2018-09-03T06:20:23.870Z,6.07
2018-09-03T06:22:51.840Z,8.80
2018-09-03T06:25:19.874Z,8.07
2018-09-03T06:27:47.910Z,7.40
2018-09-03T06:30:15.892Z,6.53
2018-09-03T06:32:44.184Z,6.57
2018-09-03T06:35:12.112Z,7.33
2018-09-03T06:37:40.166Z,8.23
2018-09-03T06:40:08.135Z,8.80
2018-09-03T06:42:36.139Z,6.53
2018-09-03T06:45:04.519Z,7.03
2018-09-03T06:47:32.551Z,9.07
2018-09-03T06:50:00.568Z,7.07
2018-09-03T06:52:28.620Z,7.87
2018-09-03T06:54:56.564Z,12.57
2018-09-03T06:57:24.527Z,8.50
2018-09-03T06:59:52.538Z,7.33
2018-09-03T07:02:20.469Z,9.20
2018-09-03T07:04:48.413Z,9.47
2018-09-03T07:07:16.356Z,9.97
2018-09-03T07:09:44.313Z,7.83
2018-09-03T07:12:12.308Z,8.67
2018-09-03T07:14:40.330Z,8.33
2018-09-03T07:17:08.259Z,9.47
2018-09-03T07:19:36.224Z,10.10
2018-09-03T07:22:04.187Z,8.70
2018-09-03T07:24:32.288Z,11.87
2018-09-03T07:27:00.240Z,9.97
2018-09-03T07:29:28.336Z,8.70
2018-09-03T07:31:56.584Z,8.87
2018-09-03T07:34:24.895Z,10.40
2018-09-03T07:36:53.098Z,11.10
2018-09-03T07:39:21.244Z,11.47
2018-09-03T07:41:49.430Z,9.10
2018-09-03T07:44:17.683Z,10.90
2018-09-03T07:46:45.865Z,9.83
2018-09-03T07:49:14.080Z,9.97
2018-09-03T07:51:42.250Z,9.87
2018-09-03T07:54:10.576Z,11.40
2018-09-03T07:56:38.785Z,11.10
2018-09-03T07:59:06.853Z,10.57
2018-09-03T08:01:34.997Z,10.17
2018-09-03T08:04:03.166Z,15.87
2018-09-03T08:06:31.332Z,10.00
2018-09-03T08:08:59.577Z,10.80
2018-09-03T08:11:27.729Z,12.67
2018-09-03T08:13:55.804Z,10.77
2018-09-03T08:16:23.945Z,12.83
2018-09-03T08:18:55.836Z,11.37
2018-09-03T08:21:23.764Z,11.30
2018-09-03T08:23:51.756Z,10.80
2018-09-03T08:26:19.776Z,10.43
2018-09-03T08:28:47.744Z,12.50
2018-09-03T08:31:15.957Z,11.17
2018-09-03T08:33:44.199Z,13.70
2018-09-03T08:36:12.123Z,12.67
2018-09-03T08:38:40.204Z,11.47
2018-09-03T08:41:08.389Z,12.33
2018-09-03T08:43:36.538Z,11.50
2018-09-03T08:46:05.629Z,11.60
2018-09-03T08:48:33.917Z,10.77
2018-09-03T08:51:02.117Z,14.10
2018-09-03T08:53:30.289Z,11.13
2018-09-03T08:55:58.444Z,11.47
2018-09-03T08:58:26.612Z,12.23
2018-09-03T09:00:54.685Z,12.93
2018-09-03T09:03:28.340Z,11.37
2018-09-03T09:05:56.392Z,12.73
2018-09-03T09:08:25.089Z,11.27
2018-09-03T09:10:55.828Z,13.00
2018-09-03T09:13:28.044Z,12.43
2018-09-03T09:15:56.978Z,12.50
2018-09-03T09:18:25.088Z,14.07
2018-09-03T09:20:53.429Z,12.90
2018-09-03T09:23:21.548Z,11.77
2018-09-03T09:25:53.328Z,13.50
2018-09-03T09:28:21.272Z,13.03
2018-09-03T09:30:50.272Z,13.67
2018-09-03T09:33:18.237Z,12.67
2018-09-03T09:35:46.313Z,13.63
2018-09-03T09:38:14.289Z,13.83
2018-09-03T09:40:47.001Z,15.17
2018-09-03T09:43:15.080Z,13.50
2018-09-03T09:45:46.318Z,13.17
2018-09-03T09:48:14.294Z,12.70
2018-09-03T09:50:42.227Z,12.57
2018-09-03T09:53:10.185Z,16.07
2018-09-03T09:55:38.146Z,13.90
2018-09-03T09:58:06.181Z,13.57
2018-09-03T10:00:39.687Z,13.63
2018-09-03T10:03:07.670Z,14.67
2018-09-03T10:05:39.464Z,13.73
2018-09-03T10:08:07.478Z,13.57
2018-09-03T10:10:35.393Z,21.30
2018-09-03T10:13:03.410Z,14.07
2018-09-03T10:15:31.356Z,14.33
2018-09-03T10:17:59.307Z,13.13
2018-09-03T10:20:27.701Z,16.67
2018-09-03T10:22:55.641Z,15.83
2018-09-03T10:25:23.911Z,16.13
2018-09-03T10:27:51.875Z,13.93
2018-09-03T10:30:20.040Z,14.43
2018-09-03T10:32:48.045Z,16.53
2018-09-03T10:35:16.070Z,16.87
2018-09-03T10:37:49.467Z,14.63
2018-09-03T10:40:17.520Z,14.87
2018-09-03T10:42:45.737Z,15.00
2018-09-03T10:45:14.819Z,16.23
2018-09-03T10:47:43.137Z,15.03
2018-09-03T10:50:11.268Z,17.50
2018-09-03T10:52:40.306Z,15.07
2018-09-03T10:55:08.312Z,14.70
2018-09-03T10:57:36.436Z,15.90
2018-09-03T11:00:10.531Z,14.90
2018-09-03T11:02:38.904Z,17.07
2018-09-03T11:05:06.939Z,17.33
2018-09-03T11:07:34.956Z,17.33
2018-09-03T11:10:02.904Z,18.80
2018-09-03T11:12:31.136Z,18.77
2018-09-03T11:14:59.131Z,19.13
2018-09-03T11:17:27.108Z,17.93
2018-09-03T11:19:57.601Z,19.03
2018-09-03T11:22:26.477Z,17.60
2018-09-03T11:24:54.547Z,20.03
2018-09-03T11:27:23.568Z,16.70
2018-09-03T11:29:56.438Z,20.07
2018-09-03T11:32:24.450Z,18.67
2018-09-03T11:34:52.468Z,18.00
2018-09-03T11:37:20.535Z,18.40
2018-09-03T11:39:48.564Z,18.00
2018-09-03T11:42:16.500Z,18.03
2018-09-03T11:44:44.457Z,19.83
2018-09-03T11:47:12.431Z,20.17
2018-09-03T11:49:40.420Z,20.10
2018-09-03T11:52:08.440Z,19.57
2018-09-03T11:54:36.424Z,19.87
2018-09-03T11:57:04.388Z,20.57
2018-09-03T11:59:32.437Z,19.67
2018-09-03T12:02:00.878Z,23.00
2018-09-03T12:04:28.805Z,21.83
2018-09-03T12:06:56.757Z,20.93
2018-09-03T12:09:24.725Z,20.30
2018-09-03T12:11:52.720Z,21.87
2018-09-03T12:14:23.327Z,21.03
2018-09-03T12:16:51.352Z,22.37
2018-09-03T12:19:19.297Z,22.63
2018-09-03T12:21:47.325Z,21.33
2018-09-03T12:24:15.324Z,22.67
2018-09-03T12:26:43.269Z,22.13
2018-09-03T12:29:11.570Z,24.03
2018-09-03T12:31:39.532Z,23.60
2018-09-03T12:34:07.473Z,20.00
2018-09-03T12:36:35.417Z,21.70
2018-09-03T12:39:03.888Z,22.20
2018-09-03T12:41:31.929Z,21.90
2018-09-03T12:43:59.897Z,24.23
2018-09-03T12:46:27.876Z,24.97
2018-09-03T12:48:55.792Z,22.43
2018-09-03T12:51:23.916Z,23.40
2018-09-03T12:53:51.859Z,23.57
2018-09-03T12:56:19.843Z,22.80
2018-09-03T12:58:47.892Z,24.10
2018-09-03T13:01:15.780Z,21.70
2018-09-03T13:03:44.749Z,24.60
2018-09-03T13:06:12.799Z,24.63
2018-09-03T13:08:40.736Z,25.80
2018-09-03T13:11:08.676Z,24.30
2018-09-03T13:13:37.589Z,22.73
2018-09-03T13:16:05.546Z,23.93
2018-09-03T13:18:33.488Z,22.90
2018-09-03T13:21:01.413Z,27.63
2018-09-03T13:23:29.376Z,25.87
2018-09-03T13:25:57.506Z,24.13
2018-09-03T13:28:25.511Z,26.80
2018-09-03T13:30:53.486Z,24.63
2018-09-03T13:33:21.416Z,24.50
2018-09-03T13:35:49.391Z,24.73
2018-09-03T13:38:17.339Z,21.73
2018-09-03T13:40:45.267Z,22.87
2018-09-03T13:43:13.219Z,24.83
2018-09-03T13:45:41.256Z,26.03
2018-09-03T13:48:09.234Z,25.73
2018-09-03T13:50:37.161Z,26.97
2018-09-03T13:53:05.092Z,26.17
2018-09-03T13:55:33.057Z,25.67
2018-09-03T13:58:01.008Z,25.67
2018-09-03T14:00:28.947Z,27.27
2018-09-03T14:02:56.872Z,26.70
2018-09-03T14:05:24.959Z,22.93
2018-09-03T14:07:52.962Z,27.63
2018-09-03T14:10:20.947Z,23.97
2018-09-03T14:12:48.952Z,26.60
2018-09-03T14:15:16.914Z,25.57
2018-09-03T14:17:45.977Z,26.50
2018-09-03T14:20:13.939Z,25.60
2018-09-03T14:22:41.923Z,26.13
2018-09-03T14:25:09.843Z,26.53
2018-09-03T14:27:37.788Z,27.43
2018-09-03T14:30:05.724Z,26.00
2018-09-03T14:32:33.687Z,29.40
2018-09-03T14:35:02.157Z,25.93
2018-09-03T14:37:30.168Z,28.27
2018-09-03T14:39:58.145Z,27.37
2018-09-03T14:42:26.123Z,27.00
2018-09-03T14:44:54.090Z,27.07
2018-09-03T14:47:22.079Z,26.97
2018-09-03T14:49:50.108Z,27.77
2018-09-03T14:52:18.093Z,29.57
2018-09-03T14:54:46.059Z,26.80
2018-09-03T14:57:14.957Z,27.63
2018-09-03T14:59:43.019Z,29.40
2018-09-03T15:02:11.016Z,27.70
2018-09-03T15:04:38.980Z,29.20
2018-09-03T15:07:07.118Z,29.90
2018-09-03T15:09:35.088Z,27.73
2018-09-03T15:12:03.067Z,28.37
2018-09-03T15:14:31.014Z,30.07
2018-09-03T15:16:58.945Z,28.57
2018-09-03T15:19:26.883Z,29.17
2018-09-03T15:21:54.844Z,32.10
2018-09-03T15:24:22.824Z,31.43
2018-09-03T15:26:50.788Z,28.87
2018-09-03T15:29:18.731Z,28.77
2018-09-03T15:31:46.721Z,31.53
2018-09-03T15:34:14.687Z,28.67
2018-09-03T15:36:42.752Z,30.40
2018-09-03T15:39:11.763Z,28.50
2018-09-03T15:41:39.721Z,25.73
2018-09-03T15:44:07.753Z,28.60
2018-09-03T15:46:35.753Z,30.97
2018-09-03T15:49:03.777Z,30.97
2018-09-03T15:51:31.709Z,27.73
2018-09-03T15:53:59.751Z,26.17
2018-09-03T15:56:27.681Z,25.40
2018-09-03T15:58:55.724Z,25.57
2018-09-03T16:01:23.712Z,29.03
2018-09-03T16:03:51.999Z,27.63
2018-09-03T16:06:19.959Z,26.17
2018-09-03T16:08:47.924Z,27.20
2018-09-03T16:11:15.964Z,27.50
2018-09-03T16:13:43.950Z,29.53
2018-09-03T16:16:12.008Z,29.50
2018-09-03T16:18:40.184Z,29.53
2018-09-03T16:21:09.017Z,27.33
2018-09-03T16:23:37.064Z,30.47
2018-09-03T16:26:05.044Z,27.13
2018-09-03T16:28:33.028Z,28.50
2018-09-03T16:31:00.996Z,30.07
2018-09-03T16:33:29.080Z,26.53
2018-09-03T16:35:57.208Z,27.07
2018-09-03T16:38:25.057Z,29.03
2018-09-03T16:40:53.100Z,26.37
2018-09-03T16:43:21.076Z,25.47
2018-09-03T16:45:49.063Z,25.60
2018-09-03T16:48:17.056Z,25.33
2018-09-03T16:50:44.980Z,25.33
2018-09-03T16:53:12.967Z,26.80
2018-09-03T16:55:41.092Z,28.03
2018-09-03T16:58:09.048Z,26.87
2018-09-03T17:00:37.016Z,29.50
2018-09-03T17:03:05.006Z,28.43
2018-09-03T17:05:32.943Z,27.83
2018-09-03T17:08:00.900Z,23.37
2018-09-03T17:10:28.820Z,23.27
2018-09-03T17:12:56.785Z,23.67
2018-09-03T17:15:24.729Z,29.50
2018-09-03T17:17:53.654Z,29.20
2018-09-03T17:20:21.672Z,33.07
2018-09-03T17:22:49.549Z,25.27
2018-09-03T17:25:17.469Z,32.20
2018-09-03T17:27:45.416Z,23.13
2018-09-03T17:30:13.371Z,21.83
2018-09-03T17:32:41.322Z,23.80
2018-09-03T17:35:09.256Z,19.97
2018-09-03T17:37:37.228Z,23.47
2018-09-03T17:40:05.176Z,22.27
2018-09-03T17:42:33.117Z,20.50
2018-09-03T17:45:01.077Z,22.37
2018-09-03T17:47:29.072Z,24.80
2018-09-03T17:49:57.019Z,21.83
2018-09-03T17:52:24.981Z,20.53
2018-09-03T17:54:52.972Z,20.47
2018-09-03T17:57:20.920Z,18.77
2018-09-03T17:59:48.937Z,21.60
2018-09-03T18:02:16.878Z,20.27
2018-09-03T18:04:44.864Z,19.53
2018-09-03T18:07:12.823Z,19.47
2018-09-03T18:09:40.809Z,22.30
2018-09-03T18:12:08.760Z,19.60
2018-09-03T18:14:36.706Z,20.50
2018-09-03T18:17:04.841Z,20.43
2018-09-03T18:19:32.938Z,22.23
2018-09-03T18:22:00.921Z,19.83
2018-09-03T18:24:28.924Z,20.40
2018-09-03T18:26:57.980Z,26.40
2018-09-03T18:29:25.974Z,21.07
2018-09-03T18:31:53.956Z,22.23
2018-09-03T18:34:21.867Z,22.43
2018-09-03T18:36:49.800Z,20.57
2018-09-03T18:39:17.703Z,22.93
2018-09-03T18:41:45.696Z,23.17
2018-09-03T18:44:13.656Z,23.17
2018-09-03T18:46:41.580Z,30.23
2018-09-03T18:49:09.540Z,24.13
2018-09-03T18:51:37.546Z,23.60
2018-09-03T18:54:05.627Z,23.10
2018-09-03T18:56:33.572Z,27.00
2018-09-03T18:59:01.616Z,23.70
2018-09-03T19:01:29.600Z,27.07
2018-09-03T19:03:57.657Z,23.77
2018-09-03T19:06:29.788Z,24.37
2018-09-03T19:09:06.890Z,24.37
2018-09-03T19:11:34.880Z,25.97
2018-09-03T19:14:03.056Z,29.73
2018-09-03T19:16:31.006Z,28.23
2018-09-03T19:19:02.437Z,25.60
2018-09-03T19:21:30.428Z,26.23
2018-09-03T19:23:58.352Z,24.80
2018-09-03T19:26:26.279Z,24.40
2018-09-03T19:28:54.274Z,29.10
2018-09-03T19:31:22.231Z,28.50
2018-09-03T19:33:50.352Z,26.07
2018-09-03T19:36:18.394Z,25.80
2018-09-03T19:38:46.390Z,23.77
2018-09-03T19:41:14.336Z,25.70
2018-09-03T19:43:42.654Z,26.87
2018-09-03T19:46:10.867Z,24.47
2018-09-03T19:48:39.011Z,23.03
2018-09-03T19:51:06.864Z,25.37
2018-09-03T19:53:34.856Z,27.50
2018-09-03T19:56:02.836Z,25.27
2018-09-03T19:58:30.854Z,25.60
2018-09-03T20:00:58.853Z,26.87
2018-09-03T20:03:26.872Z,26.33
2018-09-03T20:05:55.052Z,28.93
2018-09-03T20:08:22.950Z,24.87
2018-09-03T20:10:50.916Z,26.40
2018-09-03T20:13:18.864Z,26.77
2018-09-03T20:15:46.865Z,27.07
2018-09-03T20:18:14.801Z,28.90
2018-09-03T20:20:42.963Z,30.47
2018-09-03T20:23:12.961Z,27.67
2018-09-03T20:25:41.041Z,31.17
2018-09-03T20:28:09.172Z,25.27
2018-09-03T20:30:37.212Z,28.43
2018-09-03T20:33:05.176Z,26.90
2018-09-03T20:35:33.132Z,26.83
2018-09-03T20:38:01.064Z,25.37
2018-09-03T20:40:29.024Z,24.97
2018-09-03T20:42:58.087Z,28.17
2018-09-03T20:45:26.074Z,26.97
2018-09-03T20:47:54.191Z,27.77
2018-09-03T20:50:22.260Z,28.87
2018-09-03T20:52:50.208Z,27.70
2018-09-03T20:55:19.303Z,27.83
2018-09-03T20:57:47.240Z,27.60
2018-09-03T21:00:15.312Z,28.47
2018-09-03T21:02:43.256Z,30.50
2018-09-03T21:05:11.256Z,31.67
2018-09-03T21:07:39.232Z,27.97
2018-09-03T21:10:07.217Z,31.40
2018-09-03T21:12:37.215Z,39.53
2018-09-03T21:15:05.192Z,43.07
2018-09-03T21:17:33.349Z,43.87
2018-09-03T21:20:01.311Z,41.03
2018-09-03T21:22:29.408Z,43.90
2018-09-03T21:24:57.352Z,42.90
2018-09-03T21:27:25.317Z,39.73
2018-09-03T21:29:53.256Z,43.37
2018-09-03T21:32:21.191Z,44.90
2018-09-03T21:34:52.384Z,39.87
2018-09-03T21:37:20.532Z,42.03
2018-09-03T21:39:48.535Z,39.70
2018-09-03T21:42:16.439Z,50.37
2018-09-03T21:44:44.403Z,46.20
2018-09-03T21:47:12.360Z,55.78
2018-09-03T21:49:40.345Z,53.03
2018-09-03T21:52:08.288Z,46.33
2018-09-03T21:54:36.231Z,44.63
2018-09-03T21:57:04.192Z,48.23
2018-09-03T21:59:32.111Z,44.97
2018-09-03T22:02:00.075Z,45.70
2018-09-03T22:04:28.017Z,47.53
2018-09-03T22:06:55.975Z,48.63
2018-09-03T22:09:23.912Z,48.47
2018-09-03T22:11:51.907Z,40.43
2018-09-03T22:14:19.842Z,45.57
2018-09-03T22:16:47.781Z,49.43
2018-09-03T22:19:15.717Z,52.33
2018-09-03T22:21:43.717Z,52.03
2018-09-03T22:24:11.667Z,49.33
2018-09-03T22:26:40.072Z,50.53
2018-09-03T22:29:08.034Z,56.27
2018-09-03T22:31:36.039Z,51.87
2018-09-03T22:34:04.022Z,49.17
2018-09-03T22:36:31.988Z,51.03
2018-09-03T22:38:59.960Z,50.47
2018-09-03T22:41:27.882Z,53.77
2018-09-03T22:43:55.883Z,48.40
2018-09-03T22:46:23.816Z,48.97
2018-09-03T22:48:51.784Z,49.83
2018-09-03T22:51:19.739Z,52.53
2018-09-03T22:53:47.700Z,48.97
2018-09-03T22:56:15.619Z,49.77
2018-09-03T22:58:43.561Z,58.10
2018-09-03T23:01:11.536Z,60.03
2018-09-03T23:03:39.479Z,58.13
2018-09-03T23:06:07.437Z,62.17
2018-09-03T23:08:35.430Z,53.90
2018-09-03T23:11:03.374Z,65.10
2018-09-03T23:13:31.324Z,63.07
2018-09-03T23:15:59.272Z,67.13
2018-09-03T23:18:27.219Z,67.83
2018-09-03T23:20:55.179Z,66.43
2018-09-03T23:23:23.167Z,69.10
2018-09-03T23:25:51.191Z,67.33
2018-09-03T23:28:19.143Z,62.37
2018-09-03T23:30:47.113Z,68.37
2018-09-03T23:33:15.080Z,63.40
2018-09-03T23:35:43.012Z,71.27
2018-09-03T23:38:10.987Z,69.03
2018-09-03T23:40:39.014Z,71.17
2018-09-03T23:43:06.974Z,64.00
2018-09-03T23:45:34.967Z,73.00
2018-09-03T23:48:02.927Z,67.40
2018-09-03T23:50:30.917Z,72.47
2018-09-03T23:52:58.897Z,65.07
2018-09-03T23:55:26.943Z,65.27
2018-09-03T23:57:54.947Z,67.30
